»·PEaware :: NCA717 KJFK-KBUF

NCA717 :: KJFK-KBUF

FLIGHT INFORMATION

Flight Status: Arrived
Operator:
Nippon Cargo Airlines
More flights by this operator :: More flights under this callsign
Pilot: Ty S. (2873)
Aircraft: BOEING 747-400 (WINGLETS)
(B744)
More flights by this aircraft type
Origin: KJFK Kennedy Intl
United States
Destination: KBUF Buffalo Niagara Intl
United States
More flights between these airports :: More routes between these airports
Route: NEION J223 CORDS ULW BENEE
File this flight plan on PilotEdge
Remarks:
Altitude:
(Current/Filed)
24,000ft
Speed:
(Current/Filed)
450kts
Departed: 27-Nov-15 09:30 PM
Arrived: 27-Nov-15 10:34 PM
Distance/Time
Traveled:
260nm/1:04
Distance/Time
To Go:
Arrived

Flight Plot

Page will automatically refresh every two minutes.


Map Options




Map Legend


Flown Route
Filed Route
Departure Airport
Arrival Airport
Navaid (VOR, NDB)
Fix

Horizontal Profiles

Position Reports

Time Latitude Longitude Heading Altitude Ground
Speed
27-Nov-15 21:11 40.654279 -73.773873 203 28ft 0kts
27-Nov-15 21:12 40.654858 -73.773680 189 28ft 0kts
27-Nov-15 21:13 40.654944 -73.773784 229 28ft 0kts
27-Nov-15 21:14 40.655102 -73.774637 335 28ft 0kts
27-Nov-15 21:15 40.655312 -73.774762 335 28ft 0kts
27-Nov-15 21:16 40.653833 -73.777860 205 28ft 3kts
27-Nov-15 21:17 40.651008 -73.772622 120 28ft 31kts
27-Nov-15 21:18 40.648038 -73.766081 121 28ft 12kts
27-Nov-15 21:19 40.644184 -73.768213 209 28ft 22kts
27-Nov-15 21:20 40.639216 -73.769142 179 28ft 20kts
27-Nov-15 21:21 40.635047 -73.769216 183 28ft 13kts
27-Nov-15 21:22 40.631523 -73.769540 189 28ft 0kts
27-Nov-15 21:23 40.630624 -73.770003 208 28ft 0kts
27-Nov-15 21:24 40.629225 -73.771095 211 28ft 10kts
27-Nov-15 21:25 40.628442 -73.771746 223 28ft 10kts
27-Nov-15 21:26 40.628510 -73.772794 297 28ft 0kts
27-Nov-15 21:27 40.639914 -73.797757 300 274ft 158kts
27-Nov-15 21:28 40.638961 -73.850257 250 723ft 153kts
27-Nov-15 21:29 40.638428 -73.902031 308 1311ft 132kts
27-Nov-15 21:30 40.668137 -73.944348 312 1987ft 172kts
27-Nov-15 21:31 40.708288 -73.994735 314 3630ft 232kts
27-Nov-15 21:32 40.759262 -74.054809 316 6725ft 260kts
27-Nov-15 21:33 40.814234 -74.117304 316 10082ft 268kts
27-Nov-15 21:34 40.874295 -74.184845 314 12681ft 299kts
27-Nov-15 21:35 40.938269 -74.256402 314 15498ft 311kts
27-Nov-15 21:36 41.004933 -74.331460 313 18015ft 320kts
27-Nov-15 21:37 41.073554 -74.409800 315 20170ft 333kts
27-Nov-15 21:38 41.144790 -74.488353 314 22149ft 342kts
27-Nov-15 21:39 41.218918 -74.569690 314 23960ft 350kts
27-Nov-15 21:40 41.290788 -74.670226 298 24030ft 413kts
27-Nov-15 21:41 41.357912 -74.794911 303 24000ft 416kts
27-Nov-15 21:42 41.431385 -74.914364 304 23994ft 417kts
27-Nov-15 21:43 41.504609 -75.033346 304 23997ft 418kts
27-Nov-15 21:44 41.573924 -75.155897 294 24000ft 411kts
27-Nov-15 21:45 41.617354 -75.295746 286 23994ft 407kts
27-Nov-15 21:46 41.655314 -75.437783 286 23996ft 407kts
27-Nov-15 21:47 41.694548 -75.578411 287 23994ft 407kts
27-Nov-15 21:48 41.734165 -75.718230 287 24003ft 407kts
27-Nov-15 21:49 41.774209 -75.859086 286 24000ft 407kts
27-Nov-15 21:50 41.813790 -76.000741 286 23975ft 407kts
27-Nov-15 21:51 41.853082 -76.142611 286 23963ft 407kts
27-Nov-15 21:52 41.892340 -76.285163 286 23961ft 407kts
27-Nov-15 21:53 41.931326 -76.427374 286 23960ft 406kts
27-Nov-15 21:54 41.969909 -76.568656 286 23958ft 399kts
27-Nov-15 21:55 42.007106 -76.705337 285 23959ft 393kts
27-Nov-15 21:56 42.044644 -76.842424 285 23958ft 388kts
27-Nov-15 21:57 42.080985 -76.977208 284 23957ft 382kts
27-Nov-15 21:58 42.120848 -77.109356 288 23952ft 391kts
27-Nov-15 21:59 42.166331 -77.243366 289 23949ft 395kts
27-Nov-15 22:00 42.209767 -77.374125 288 22677ft 362kts
27-Nov-15 22:01 42.247746 -77.490250 287 21162ft 315kts
27-Nov-15 22:02 42.280729 -77.592232 287 19850ft 290kts
27-Nov-15 22:03 42.312396 -77.690655 287 18678ft 287kts
27-Nov-15 22:04 42.343639 -77.786627 287 17555ft 284kts
27-Nov-15 22:05 42.374996 -77.884074 287 16395ft 281kts
27-Nov-15 22:06 42.405753 -77.980331 287 15225ft 279kts
27-Nov-15 22:07 42.436197 -78.075991 287 14038ft 275kts
27-Nov-15 22:08 42.466095 -78.170261 288 12846ft 271kts
27-Nov-15 22:09 42.495452 -78.263118 288 11647ft 267kts
27-Nov-15 22:10 42.544420 -78.332883 324 10601ft 263kts
27-Nov-15 22:11 42.609444 -78.375115 330 9469ft 258kts
27-Nov-15 22:12 42.674283 -78.412774 332 8193ft 252kts
27-Nov-15 22:13 42.738049 -78.448693 334 6916ft 248kts
27-Nov-15 22:14 42.799800 -78.487033 320 5560ft 242kts
27-Nov-15 22:15 42.842272 -78.551057 308 4193ft 204kts
27-Nov-15 22:16 42.875190 -78.610885 308 3113ft 205kts
27-Nov-15 22:17 42.906753 -78.668503 307 1912ft 179kts
27-Nov-15 22:18 42.934604 -78.719302 307 914ft 177kts
27-Nov-15 22:19 42.972182 -78.786236 308 1626ft 259kts
27-Nov-15 22:20 43.012869 -78.862544 307 2703ft 218kts
27-Nov-15 22:21 43.037231 -78.933881 266 3452ft 219kts
27-Nov-15 22:22 43.006444 -78.985663 185 2908ft 235kts
27-Nov-15 22:23 42.950943 -78.910620 121 3106ft 274kts
27-Nov-15 22:24 42.915699 -78.840705 123 3320ft 270kts
27-Nov-15 22:25 42.875516 -78.763473 124 3054ft 233kts
27-Nov-15 22:26 42.840030 -78.696091 124 3000ft 224kts
27-Nov-15 22:27 42.825112 -78.635251 37 2063ft 156kts
27-Nov-15 22:28 42.865027 -78.647027 337 1625ft 172kts
27-Nov-15 22:29 42.906723 -78.675213 330 1308ft 166kts
27-Nov-15 22:30 42.937032 -78.723663 307 760ft 170kts
27-Nov-15 22:31 42.946124 -78.741912 184 739ft 3kts
27-Nov-15 22:32 42.942860 -78.736285 125 739ft 23kts
27-Nov-15 22:33 42.938750 -78.732766 178 739ft 15kts
27-Nov-15 22:34 42.937229 -78.736497 298 739ft 18kts
27-Nov-15 22:35 42.939352 -78.739916 340 739ft 0kts
27-Nov-15 22:36 42.945567 -78.739344 307 739ft 51kts
27-Nov-15 22:37 42.930597 -78.711798 307 931ft 169kts

Navigation Log

Ident Type
Flight plan parsing failed, navigation log unavailable